sensor_id;sensor_type;location;lat;lon;timestamp;P1;durP1;ratioP1;P2;durP2;ratioP2
42590;SDS011;28218;53.342;-6.216;2023-04-08T00:00:56;10.55;;;4.25;;
42590;SDS011;28218;53.342;-6.216;2023-04-08T00:03:25;20.50;;;4.93;;
42590;SDS011;28218;53.342;-6.216;2023-04-08T00:05:54;12.98;;;4.53;;
42590;SDS011;28218;53.342;-6.216;2023-04-08T00:08:22;7.68;;;3.85;;
42590;SDS011;28218;53.342;-6.216;2023-04-08T00:10:50;14.70;;;4.38;;
42590;SDS011;28218;53.342;-6.216;2023-04-08T00:13:19;14.73;;;4.68;;
42590;SDS011;28218;53.342;-6.216;2023-04-08T00:15:47;17.10;;;4.68;;
42590;SDS011;28218;53.342;-6.216;2023-04-08T00:18:15;11.93;;;4.38;;
42590;SDS011;28218;53.342;-6.216;2023-04-08T00:20:45;15.65;;;4.90;;
42590;SDS011;28218;53.342;-6.216;2023-04-08T00:23:13;16.23;;;5.20;;
42590;SDS011;28218;53.342;-6.216;2023-04-08T00:25:41;16.73;;;5.72;;
42590;SDS011;28218;53.342;-6.216;2023-04-08T00:28:10;13.95;;;5.57;;
42590;SDS011;28218;53.342;-6.216;2023-04-08T00:30:39;15.13;;;6.18;;
42590;SDS011;28218;53.342;-6.216;2023-04-08T00:33:07;10.10;;;4.78;;
42590;SDS011;28218;53.342;-6.216;2023-04-08T00:35:36;13.88;;;5.63;;
42590;SDS011;28218;53.342;-6.216;2023-04-08T00:38:05;15.98;;;5.68;;
42590;SDS011;28218;53.342;-6.216;2023-04-08T00:40:34;13.70;;;5.85;;
42590;SDS011;28218;53.342;-6.216;2023-04-08T00:43:02;9.52;;;5.22;;
42590;SDS011;28218;53.342;-6.216;2023-04-08T00:45:31;12.60;;;5.22;;
42590;SDS011;28218;53.342;-6.216;2023-04-08T00:48:00;9.70;;;5.32;;
42590;SDS011;28218;53.342;-6.216;2023-04-08T00:50:29;13.13;;;5.30;;
42590;SDS011;28218;53.342;-6.216;2023-04-08T00:52:57;19.65;;;5.45;;
42590;SDS011;28218;53.342;-6.216;2023-04-08T00:55:27;14.68;;;5.80;;
42590;SDS011;28218;53.342;-6.216;2023-04-08T00:57:55;11.40;;;6.47;;
42590;SDS011;28218;53.342;-6.216;2023-04-08T01:00:24;13.15;;;5.70;;
42590;SDS011;28218;53.342;-6.216;2023-04-08T01:02:54;13.57;;;6.60;;
42590;SDS011;28218;53.342;-6.216;2023-04-08T01:05:33;16.25;;;6.05;;
42590;SDS011;28218;53.342;-6.216;2023-04-08T01:08:07;10.50;;;5.80;;
42590;SDS011;28218;53.342;-6.216;2023-04-08T01:10:40;13.63;;;5.80;;
42590;SDS011;28218;53.342;-6.216;2023-04-08T01:13:11;10.13;;;5.25;;
42590;SDS011;28218;53.342;-6.216;2023-04-08T01:15:44;11.65;;;5.97;;
42590;SDS011;28218;53.342;-6.216;2023-04-08T01:18:13;14.10;;;5.72;;
42590;SDS011;28218;53.342;-6.216;2023-04-08T01:20:43;15.27;;;6.72;;
42590;SDS011;28218;53.342;-6.216;2023-04-08T01:23:15;10.73;;;5.18;;
42590;SDS011;28218;53.342;-6.216;2023-04-08T01:25:59;14.40;;;6.50;;
42590;SDS011;28218;53.342;-6.216;2023-04-08T01:28:28;22.45;;;6.60;;
42590;SDS011;28218;53.342;-6.216;2023-04-08T01:30:58;13.38;;;5.53;;
42590;SDS011;28218;53.342;-6.216;2023-04-08T01:33:28;10.38;;;6.13;;
42590;SDS011;28218;53.342;-6.216;2023-04-08T01:35:58;18.95;;;6.57;;
42590;SDS011;28218;53.342;-6.216;2023-04-08T01:38:27;17.77;;;6.25;;
42590;SDS011;28218;53.342;-6.216;2023-04-08T01:40:59;10.88;;;5.65;;
42590;SDS011;28218;53.342;-6.216;2023-04-08T01:43:28;17.60;;;5.80;;
42590;SDS011;28218;53.342;-6.216;2023-04-08T01:45:57;10.82;;;5.28;;
42590;SDS011;28218;53.342;-6.216;2023-04-08T01:48:26;14.23;;;6.22;;
42590;SDS011;28218;53.342;-6.216;2023-04-08T01:50:55;13.07;;;5.85;;
42590;SDS011;28218;53.342;-6.216;2023-04-08T01:53:25;17.80;;;8.00;;
42590;SDS011;28218;53.342;-6.216;2023-04-08T01:55:54;15.85;;;5.25;;
42590;SDS011;28218;53.342;-6.216;2023-04-08T01:58:26;10.98;;;5.85;;
42590;SDS011;28218;53.342;-6.216;2023-04-08T02:01:03;13.48;;;5.28;;
42590;SDS011;28218;53.342;-6.216;2023-04-08T02:03:32;9.45;;;5.20;;
42590;SDS011;28218;53.342;-6.216;2023-04-08T02:06:02;18.08;;;4.90;;
42590;SDS011;28218;53.342;-6.216;2023-04-08T02:08:32;9.18;;;5.47;;
42590;SDS011;28218;53.342;-6.216;2023-04-08T02:11:01;17.98;;;6.20;;
42590;SDS011;28218;53.342;-6.216;2023-04-08T02:13:31;17.50;;;6.53;;
42590;SDS011;28218;53.342;-6.216;2023-04-08T02:16:02;10.30;;;5.95;;
42590;SDS011;28218;53.342;-6.216;2023-04-08T02:18:33;16.73;;;5.95;;
42590;SDS011;28218;53.342;-6.216;2023-04-08T02:21:05;13.95;;;6.47;;
42590;SDS011;28218;53.342;-6.216;2023-04-08T02:23:38;13.60;;;5.93;;
42590;SDS011;28218;53.342;-6.216;2023-04-08T02:26:11;14.35;;;5.80;;
42590;SDS011;28218;53.342;-6.216;2023-04-08T02:28:42;13.65;;;5.75;;
42590;SDS011;28218;53.342;-6.216;2023-04-08T02:31:11;14.10;;;5.70;;
42590;SDS011;28218;53.342;-6.216;2023-04-08T02:33:41;14.90;;;5.63;;
42590;SDS011;28218;53.342;-6.216;2023-04-08T02:36:10;19.55;;;6.90;;
42590;SDS011;28218;53.342;-6.216;2023-04-08T02:38:39;14.95;;;5.30;;
42590;SDS011;28218;53.342;-6.216;2023-04-08T02:41:07;9.95;;;5.05;;
42590;SDS011;28218;53.342;-6.216;2023-04-08T02:43:35;18.42;;;5.10;;
42590;SDS011;28218;53.342;-6.216;2023-04-08T02:46:05;10.65;;;4.80;;
42590;SDS011;28218;53.342;-6.216;2023-04-08T02:48:33;9.57;;;4.28;;
42590;SDS011;28218;53.342;-6.216;2023-04-08T02:51:02;12.57;;;4.75;;
42590;SDS011;28218;53.342;-6.216;2023-04-08T02:53:30;13.60;;;5.45;;
42590;SDS011;28218;53.342;-6.216;2023-04-08T02:55:59;12.43;;;5.40;;
42590;SDS011;28218;53.342;-6.216;2023-04-08T02:58:27;12.85;;;5.13;;
42590;SDS011;28218;53.342;-6.216;2023-04-08T03:00:55;10.75;;;4.22;;
42590;SDS011;28218;53.342;-6.216;2023-04-08T03:03:24;14.38;;;4.78;;
42590;SDS011;28218;53.342;-6.216;2023-04-08T03:05:55;10.77;;;5.22;;
42590;SDS011;28218;53.342;-6.216;2023-04-08T03:08:24;10.73;;;4.90;;
42590;SDS011;28218;53.342;-6.216;2023-04-08T03:10:52;13.52;;;4.68;;
42590;SDS011;28218;53.342;-6.216;2023-04-08T03:13:21;11.85;;;4.57;;
42590;SDS011;28218;53.342;-6.216;2023-04-08T03:15:49;10.32;;;4.40;;
42590;SDS011;28218;53.342;-6.216;2023-04-08T03:18:17;8.07;;;4.40;;
42590;SDS011;28218;53.342;-6.216;2023-04-08T03:20:47;10.48;;;4.60;;
42590;SDS011;28218;53.342;-6.216;2023-04-08T03:23:15;9.88;;;4.32;;
42590;SDS011;28218;53.342;-6.216;2023-04-08T03:25:43;5.82;;;3.72;;
42590;SDS011;28218;53.342;-6.216;2023-04-08T03:28:12;11.95;;;3.97;;
42590;SDS011;28218;53.342;-6.216;2023-04-08T03:30:40;9.73;;;4.60;;
42590;SDS011;28218;53.342;-6.216;2023-04-08T03:33:08;12.40;;;4.10;;
42590;SDS011;28218;53.342;-6.216;2023-04-08T03:35:37;16.02;;;4.03;;
42590;SDS011;28218;53.342;-6.216;2023-04-08T03:38:06;8.63;;;3.97;;
42590;SDS011;28218;53.342;-6.216;2023-04-08T03:40:35;9.48;;;3.60;;
42590;SDS011;28218;53.342;-6.216;2023-04-08T03:43:03;8.40;;;3.63;;
42590;SDS011;28218;53.342;-6.216;2023-04-08T03:45:32;7.13;;;3.35;;
42590;SDS011;28218;53.342;-6.216;2023-04-08T03:48:00;6.97;;;3.45;;
42590;SDS011;28218;53.342;-6.216;2023-04-08T03:50:28;7.88;;;3.33;;
42590;SDS011;28218;53.342;-6.216;2023-04-08T03:52:57;8.18;;;3.67;;
42590;SDS011;28218;53.342;-6.216;2023-04-08T03:55:26;13.05;;;3.90;;
42590;SDS011;28218;53.342;-6.216;2023-04-08T03:57:54;9.05;;;3.72;;
42590;SDS011;28218;53.342;-6.216;2023-04-08T04:00:22;14.30;;;3.10;;
42590;SDS011;28218;53.342;-6.216;2023-04-08T04:02:51;8.30;;;3.67;;
42590;SDS011;28218;53.342;-6.216;2023-04-08T04:05:20;5.80;;;3.00;;
42590;SDS011;28218;53.342;-6.216;2023-04-08T04:07:49;6.65;;;3.42;;
42590;SDS011;28218;53.342;-6.216;2023-04-08T04:10:17;8.95;;;3.30;;
42590;SDS011;28218;53.342;-6.216;2023-04-08T04:12:47;13.15;;;3.10;;
42590;SDS011;28218;53.342;-6.216;2023-04-08T04:15:16;14.05;;;4.25;;
42590;SDS011;28218;53.342;-6.216;2023-04-08T04:17:46;11.38;;;4.28;;
42590;SDS011;28218;53.342;-6.216;2023-04-08T04:20:15;8.70;;;3.50;;
42590;SDS011;28218;53.342;-6.216;2023-04-08T04:22:44;12.38;;;3.55;;
42590;SDS011;28218;53.342;-6.216;2023-04-08T04:25:12;15.05;;;4.40;;
42590;SDS011;28218;53.342;-6.216;2023-04-08T04:27:40;10.85;;;3.72;;
42590;SDS011;28218;53.342;-6.216;2023-04-08T04:30:10;9.10;;;3.95;;
42590;SDS011;28218;53.342;-6.216;2023-04-08T04:32:41;11.50;;;4.13;;
42590;SDS011;28218;53.342;-6.216;2023-04-08T04:35:09;7.97;;;3.78;;
42590;SDS011;28218;53.342;-6.216;2023-04-08T04:37:38;11.68;;;4.38;;
42590;SDS011;28218;53.342;-6.216;2023-04-08T04:40:06;8.85;;;4.85;;
42590;SDS011;28218;53.342;-6.216;2023-04-08T04:42:35;11.80;;;4.35;;
42590;SDS011;28218;53.342;-6.216;2023-04-08T04:45:03;11.25;;;3.67;;
42590;SDS011;28218;53.342;-6.216;2023-04-08T04:47:33;13.02;;;4.00;;
42590;SDS011;28218;53.342;-6.216;2023-04-08T04:50:02;11.48;;;4.05;;
42590;SDS011;28218;53.342;-6.216;2023-04-08T04:52:30;8.77;;;3.40;;
42590;SDS011;28218;53.342;-6.216;2023-04-08T04:54:59;6.60;;;3.63;;
42590;SDS011;28218;53.342;-6.216;2023-04-08T04:57:27;12.13;;;4.88;;
42590;SDS011;28218;53.342;-6.216;2023-04-08T04:59:55;15.63;;;4.57;;
42590;SDS011;28218;53.342;-6.216;2023-04-08T05:02:23;11.80;;;3.95;;
42590;SDS011;28218;53.342;-6.216;2023-04-08T05:04:54;10.10;;;3.75;;
42590;SDS011;28218;53.342;-6.216;2023-04-08T05:07:22;9.38;;;4.25;;
42590;SDS011;28218;53.342;-6.216;2023-04-08T05:09:50;11.43;;;4.22;;
42590;SDS011;28218;53.342;-6.216;2023-04-08T05:12:19;11.77;;;3.95;;
42590;SDS011;28218;53.342;-6.216;2023-04-08T05:14:47;9.63;;;4.00;;
42590;SDS011;28218;53.342;-6.216;2023-04-08T05:17:15;7.05;;;4.15;;
42590;SDS011;28218;53.342;-6.216;2023-04-08T05:19:43;9.25;;;3.63;;
42590;SDS011;28218;53.342;-6.216;2023-04-08T05:22:13;10.70;;;4.28;;
42590;SDS011;28218;53.342;-6.216;2023-04-08T05:24:41;9.13;;;3.72;;
42590;SDS011;28218;53.342;-6.216;2023-04-08T05:27:09;9.88;;;3.63;;
42590;SDS011;28218;53.342;-6.216;2023-04-08T05:29:38;10.55;;;3.92;;
42590;SDS011;28218;53.342;-6.216;2023-04-08T05:32:07;11.80;;;4.03;;
42590;SDS011;28218;53.342;-6.216;2023-04-08T05:34:35;11.18;;;4.03;;
42590;SDS011;28218;53.342;-6.216;2023-04-08T05:37:03;12.65;;;4.60;;
42590;SDS011;28218;53.342;-6.216;2023-04-08T05:39:32;14.85;;;4.90;;
42590;SDS011;28218;53.342;-6.216;2023-04-08T05:42:02;12.70;;;4.33;;
42590;SDS011;28218;53.342;-6.216;2023-04-08T05:44:30;6.05;;;3.72;;
42590;SDS011;28218;53.342;-6.216;2023-04-08T05:46:58;10.90;;;4.25;;
42590;SDS011;28218;53.342;-6.216;2023-04-08T05:49:27;15.43;;;4.53;;
42590;SDS011;28218;53.342;-6.216;2023-04-08T05:51:55;7.60;;;4.22;;
42590;SDS011;28218;53.342;-6.216;2023-04-08T05:54:23;12.25;;;4.75;;
42590;SDS011;28218;53.342;-6.216;2023-04-08T05:56:53;8.05;;;3.85;;
42590;SDS011;28218;53.342;-6.216;2023-04-08T05:59:21;12.23;;;4.95;;
42590;SDS011;28218;53.342;-6.216;2023-04-08T06:01:49;11.25;;;4.90;;
42590;SDS011;28218;53.342;-6.216;2023-04-08T06:04:17;9.65;;;4.20;;
42590;SDS011;28218;53.342;-6.216;2023-04-08T06:06:46;12.13;;;4.25;;
42590;SDS011;28218;53.342;-6.216;2023-04-08T06:09:14;11.27;;;4.43;;
42590;SDS011;28218;53.342;-6.216;2023-04-08T06:11:42;5.50;;;3.72;;
42590;SDS011;28218;53.342;-6.216;2023-04-08T06:14:14;10.02;;;4.00;;
42590;SDS011;28218;53.342;-6.216;2023-04-08T06:16:42;8.27;;;3.58;;
42590;SDS011;28218;53.342;-6.216;2023-04-08T06:19:10;10.30;;;4.03;;
42590;SDS011;28218;53.342;-6.216;2023-04-08T06:21:38;8.32;;;3.67;;
42590;SDS011;28218;53.342;-6.216;2023-04-08T06:24:07;7.82;;;3.53;;
42590;SDS011;28218;53.342;-6.216;2023-04-08T06:26:35;14.70;;;3.90;;
42590;SDS011;28218;53.342;-6.216;2023-04-08T06:29:03;6.93;;;2.42;;
42590;SDS011;28218;53.342;-6.216;2023-04-08T06:31:33;13.90;;;4.25;;
42590;SDS011;28218;53.342;-6.216;2023-04-08T06:34:01;12.73;;;2.60;;
42590;SDS011;28218;53.342;-6.216;2023-04-08T06:36:29;8.82;;;2.67;;
42590;SDS011;28218;53.342;-6.216;2023-04-08T06:38:57;10.48;;;2.90;;
42590;SDS011;28218;53.342;-6.216;2023-04-08T06:41:25;6.15;;;2.80;;
42590;SDS011;28218;53.342;-6.216;2023-04-08T06:43:54;9.65;;;2.65;;
42590;SDS011;28218;53.342;-6.216;2023-04-08T06:46:22;7.60;;;2.60;;
42590;SDS011;28218;53.342;-6.216;2023-04-08T06:48:52;12.68;;;2.92;;
42590;SDS011;28218;53.342;-6.216;2023-04-08T06:51:21;5.80;;;2.80;;
42590;SDS011;28218;53.342;-6.216;2023-04-08T06:53:49;9.32;;;2.90;;
42590;SDS011;28218;53.342;-6.216;2023-04-08T06:56:17;6.05;;;2.80;;
42590;SDS011;28218;53.342;-6.216;2023-04-08T06:58:46;6.55;;;2.35;;
42590;SDS011;28218;53.342;-6.216;2023-04-08T07:01:15;10.48;;;2.47;;
42590;SDS011;28218;53.342;-6.216;2023-04-08T07:03:43;18.50;;;2.80;;
42590;SDS011;28218;53.342;-6.216;2023-04-08T07:06:13;6.90;;;2.15;;
42590;SDS011;28218;53.342;-6.216;2023-04-08T07:08:41;11.27;;;3.00;;
42590;SDS011;28218;53.342;-6.216;2023-04-08T07:11:09;5.18;;;1.90;;
42590;SDS011;28218;53.342;-6.216;2023-04-08T07:13:37;8.25;;;2.60;;
42590;SDS011;28218;53.342;-6.216;2023-04-08T07:16:05;10.45;;;2.80;;
42590;SDS011;28218;53.342;-6.216;2023-04-08T07:18:34;8.45;;;1.90;;
42590;SDS011;28218;53.342;-6.216;2023-04-08T07:21:02;3.65;;;1.80;;
42590;SDS011;28218;53.342;-6.216;2023-04-08T07:23:32;9.18;;;2.65;;
42590;SDS011;28218;53.342;-6.216;2023-04-08T07:26:01;9.98;;;2.28;;
42590;SDS011;28218;53.342;-6.216;2023-04-08T07:28:30;8.52;;;2.00;;
42590;SDS011;28218;53.342;-6.216;2023-04-08T07:31:07;9.07;;;2.17;;
42590;SDS011;28218;53.342;-6.216;2023-04-08T07:33:36;5.88;;;2.00;;
42590;SDS011;28218;53.342;-6.216;2023-04-08T07:36:04;6.07;;;2.20;;
42590;SDS011;28218;53.342;-6.216;2023-04-08T07:38:34;2.95;;;1.42;;
42590;SDS011;28218;53.342;-6.216;2023-04-08T07:41:02;8.82;;;1.98;;
42590;SDS011;28218;53.342;-6.216;2023-04-08T07:43:31;7.40;;;2.00;;
42590;SDS011;28218;53.342;-6.216;2023-04-08T07:48:31;5.35;;;1.83;;
42590;SDS011;28218;53.342;-6.216;2023-04-08T07:51:01;8.75;;;2.20;;
42590;SDS011;28218;53.342;-6.216;2023-04-08T07:53:37;6.72;;;2.30;;
42590;SDS011;28218;53.342;-6.216;2023-04-08T07:56:09;10.25;;;2.28;;
42590;SDS011;28218;53.342;-6.216;2023-04-08T07:58:39;5.75;;;1.95;;
42590;SDS011;28218;53.342;-6.216;2023-04-08T08:01:13;6.40;;;1.92;;
42590;SDS011;28218;53.342;-6.216;2023-04-08T08:03:43;12.48;;;2.05;;
42590;SDS011;28218;53.342;-6.216;2023-04-08T08:06:13;7.40;;;1.90;;
42590;SDS011;28218;53.342;-6.216;2023-04-08T08:08:43;4.63;;;1.45;;
42590;SDS011;28218;53.342;-6.216;2023-04-08T08:11:12;9.85;;;1.45;;
42590;SDS011;28218;53.342;-6.216;2023-04-08T08:13:40;9.25;;;1.73;;
42590;SDS011;28218;53.342;-6.216;2023-04-08T08:16:08;4.50;;;2.40;;
42590;SDS011;28218;53.342;-6.216;2023-04-08T08:18:37;5.65;;;1.50;;
42590;SDS011;28218;53.342;-6.216;2023-04-08T08:21:06;8.02;;;1.38;;
42590;SDS011;28218;53.342;-6.216;2023-04-08T08:23:35;8.52;;;1.58;;
42590;SDS011;28218;53.342;-6.216;2023-04-08T08:26:06;5.05;;;1.50;;
42590;SDS011;28218;53.342;-6.216;2023-04-08T08:28:36;9.18;;;1.27;;
42590;SDS011;28218;53.342;-6.216;2023-04-08T08:31:05;6.05;;;1.25;;
42590;SDS011;28218;53.342;-6.216;2023-04-08T08:33:33;8.07;;;1.40;;
42590;SDS011;28218;53.342;-6.216;2023-04-08T08:36:02;9.18;;;1.40;;
42590;SDS011;28218;53.342;-6.216;2023-04-08T08:38:32;4.45;;;1.30;;
42590;SDS011;28218;53.342;-6.216;2023-04-08T08:41:00;8.43;;;1.63;;
42590;SDS011;28218;53.342;-6.216;2023-04-08T08:43:31;4.40;;;1.35;;
42590;SDS011;28218;53.342;-6.216;2023-04-08T08:46:00;5.35;;;1.45;;
42590;SDS011;28218;53.342;-6.216;2023-04-08T08:48:30;1.67;;;0.70;;
42590;SDS011;28218;53.342;-6.216;2023-04-08T08:50:59;2.20;;;1.17;;
42590;SDS011;28218;53.342;-6.216;2023-04-08T08:53:28;4.05;;;1.15;;
42590;SDS011;28218;53.342;-6.216;2023-04-08T08:56:01;7.05;;;1.30;;
42590;SDS011;28218;53.342;-6.216;2023-04-08T08:58:34;7.75;;;1.25;;
42590;SDS011;28218;53.342;-6.216;2023-04-08T09:01:02;6.35;;;1.23;;
42590;SDS011;28218;53.342;-6.216;2023-04-08T09:04:07;3.50;;;1.27;;
42590;SDS011;28218;53.342;-6.216;2023-04-08T09:06:38;8.25;;;2.13;;
42590;SDS011;28218;53.342;-6.216;2023-04-08T09:09:07;6.88;;;1.35;;
42590;SDS011;28218;53.342;-6.216;2023-04-08T09:11:38;8.38;;;2.35;;
42590;SDS011;28218;53.342;-6.216;2023-04-08T09:14:18;7.18;;;1.40;;
42590;SDS011;28218;53.342;-6.216;2023-04-08T09:16:48;4.80;;;1.33;;
42590;SDS011;28218;53.342;-6.216;2023-04-08T09:19:17;11.43;;;2.08;;
42590;SDS011;28218;53.342;-6.216;2023-04-08T09:21:47;11.43;;;1.58;;
42590;SDS011;28218;53.342;-6.216;2023-04-08T09:24:32;5.18;;;1.70;;
42590;SDS011;28218;53.342;-6.216;2023-04-08T09:27:03;5.40;;;1.80;;
42590;SDS011;28218;53.342;-6.216;2023-04-08T09:29:33;8.32;;;1.80;;
42590;SDS011;28218;53.342;-6.216;2023-04-08T09:32:05;7.13;;;1.42;;
42590;SDS011;28218;53.342;-6.216;2023-04-08T09:34:33;7.20;;;1.75;;
42590;SDS011;28218;53.342;-6.216;2023-04-08T09:37:02;7.70;;;1.67;;
42590;SDS011;28218;53.342;-6.216;2023-04-08T09:39:30;12.48;;;2.25;;
42590;SDS011;28218;53.342;-6.216;2023-04-08T09:41:58;10.30;;;1.75;;
42590;SDS011;28218;53.342;-6.216;2023-04-08T09:44:28;6.60;;;1.40;;
42590;SDS011;28218;53.342;-6.216;2023-04-08T09:47:00;10.00;;;1.73;;
42590;SDS011;28218;53.342;-6.216;2023-04-08T09:49:36;5.35;;;1.80;;
42590;SDS011;28218;53.342;-6.216;2023-04-08T09:52:10;11.98;;;2.67;;
42590;SDS011;28218;53.342;-6.216;2023-04-08T09:54:43;7.80;;;1.58;;
42590;SDS011;28218;53.342;-6.216;2023-04-08T09:57:16;6.57;;;1.45;;
42590;SDS011;28218;53.342;-6.216;2023-04-08T09:59:51;19.17;;;2.13;;
42590;SDS011;28218;53.342;-6.216;2023-04-08T10:02:28;10.18;;;1.05;;
42590;SDS011;28218;53.342;-6.216;2023-04-08T10:05:02;3.15;;;1.15;;
42590;SDS011;28218;53.342;-6.216;2023-04-08T10:07:34;5.57;;;1.50;;
42590;SDS011;28218;53.342;-6.216;2023-04-08T10:10:02;8.50;;;1.52;;
42590;SDS011;28218;53.342;-6.216;2023-04-08T10:12:31;16.02;;;2.55;;
42590;SDS011;28218;53.342;-6.216;2023-04-08T10:17:51;11.80;;;1.60;;
42590;SDS011;28218;53.342;-6.216;2023-04-08T10:23:11;8.63;;;1.48;;
42590;SDS011;28218;53.342;-6.216;2023-04-08T10:25:41;6.82;;;1.38;;
42590;SDS011;28218;53.342;-6.216;2023-04-08T10:28:23;11.43;;;1.45;;
42590;SDS011;28218;53.342;-6.216;2023-04-08T10:30:53;5.30;;;1.30;;
42590;SDS011;28218;53.342;-6.216;2023-04-08T10:33:30;12.45;;;1.75;;
42590;SDS011;28218;53.342;-6.216;2023-04-08T10:36:07;4.85;;;1.40;;
42590;SDS011;28218;53.342;-6.216;2023-04-08T10:38:37;5.20;;;1.58;;
42590;SDS011;28218;53.342;-6.216;2023-04-08T10:41:05;6.55;;;1.50;;
42590;SDS011;28218;53.342;-6.216;2023-04-08T10:43:33;6.38;;;1.70;;
42590;SDS011;28218;53.342;-6.216;2023-04-08T10:46:02;6.38;;;1.58;;
42590;SDS011;28218;53.342;-6.216;2023-04-08T10:48:35;13.45;;;2.70;;
42590;SDS011;28218;53.342;-6.216;2023-04-08T10:51:03;12.40;;;1.88;;
42590;SDS011;28218;53.342;-6.216;2023-04-08T10:53:32;5.22;;;1.48;;
42590;SDS011;28218;53.342;-6.216;2023-04-08T10:56:02;12.48;;;1.77;;
42590;SDS011;28218;53.342;-6.216;2023-04-08T10:58:32;9.38;;;2.03;;
42590;SDS011;28218;53.342;-6.216;2023-04-08T11:01:03;6.60;;;1.90;;
42590;SDS011;28218;53.342;-6.216;2023-04-08T11:03:35;9.52;;;1.40;;
42590;SDS011;28218;53.342;-6.216;2023-04-08T11:06:03;8.15;;;1.58;;
42590;SDS011;28218;53.342;-6.216;2023-04-08T11:08:33;7.57;;;1.73;;
42590;SDS011;28218;53.342;-6.216;2023-04-08T11:11:03;9.60;;;3.03;;
42590;SDS011;28218;53.342;-6.216;2023-04-08T11:16:03;7.60;;;2.05;;
42590;SDS011;28218;53.342;-6.216;2023-04-08T11:18:45;13.15;;;1.77;;
42590;SDS011;28218;53.342;-6.216;2023-04-08T11:21:13;11.20;;;1.73;;
42590;SDS011;28218;53.342;-6.216;2023-04-08T11:23:42;6.22;;;1.92;;
42590;SDS011;28218;53.342;-6.216;2023-04-08T11:26:10;18.85;;;2.42;;
42590;SDS011;28218;53.342;-6.216;2023-04-08T11:28:40;9.90;;;2.00;;
42590;SDS011;28218;53.342;-6.216;2023-04-08T11:31:08;7.68;;;1.83;;
42590;SDS011;28218;53.342;-6.216;2023-04-08T11:33:40;8.98;;;2.30;;
42590;SDS011;28218;53.342;-6.216;2023-04-08T11:36:15;8.88;;;1.55;;
42590;SDS011;28218;53.342;-6.216;2023-04-08T11:38:44;11.32;;;2.15;;
42590;SDS011;28218;53.342;-6.216;2023-04-08T11:41:13;6.78;;;2.00;;
42590;SDS011;28218;53.342;-6.216;2023-04-08T11:43:52;8.32;;;2.22;;
42590;SDS011;28218;53.342;-6.216;2023-04-08T11:46:21;15.07;;;2.50;;
42590;SDS011;28218;53.342;-6.216;2023-04-08T11:48:58;10.48;;;2.15;;
42590;SDS011;28218;53.342;-6.216;2023-04-08T11:51:31;4.00;;;1.87;;
42590;SDS011;28218;53.342;-6.216;2023-04-08T11:54:03;15.27;;;2.33;;
42590;SDS011;28218;53.342;-6.216;2023-04-08T11:56:43;10.45;;;2.13;;
42590;SDS011;28218;53.342;-6.216;2023-04-08T11:59:12;12.50;;;2.53;;
42590;SDS011;28218;53.342;-6.216;2023-04-08T12:01:41;13.63;;;2.22;;
42590;SDS011;28218;53.342;-6.216;2023-04-08T12:04:10;6.85;;;2.10;;
42590;SDS011;28218;53.342;-6.216;2023-04-08T12:06:39;12.10;;;2.53;;
42590;SDS011;28218;53.342;-6.216;2023-04-08T12:09:09;14.13;;;2.45;;
42590;SDS011;28218;53.342;-6.216;2023-04-08T12:11:37;12.95;;;2.58;;
42590;SDS011;28218;53.342;-6.216;2023-04-08T12:14:05;8.95;;;2.05;;
42590;SDS011;28218;53.342;-6.216;2023-04-08T12:16:33;15.32;;;3.25;;
42590;SDS011;28218;53.342;-6.216;2023-04-08T12:19:02;11.48;;;2.22;;
42590;SDS011;28218;53.342;-6.216;2023-04-08T12:21:31;12.55;;;2.45;;
42590;SDS011;28218;53.342;-6.216;2023-04-08T12:23:59;11.23;;;2.72;;
42590;SDS011;28218;53.342;-6.216;2023-04-08T12:26:28;15.40;;;3.05;;
42590;SDS011;28218;53.342;-6.216;2023-04-08T12:28:56;13.45;;;2.40;;
42590;SDS011;28218;53.342;-6.216;2023-04-08T12:31:24;17.48;;;3.05;;
42590;SDS011;28218;53.342;-6.216;2023-04-08T12:33:54;9.63;;;2.75;;
42590;SDS011;28218;53.342;-6.216;2023-04-08T12:36:22;19.38;;;3.05;;
42590;SDS011;28218;53.342;-6.216;2023-04-08T12:38:52;15.38;;;2.35;;
42590;SDS011;28218;53.342;-6.216;2023-04-08T12:41:20;10.30;;;2.72;;
42590;SDS011;28218;53.342;-6.216;2023-04-08T12:43:48;12.07;;;2.13;;
42590;SDS011;28218;53.342;-6.216;2023-04-08T12:46:16;12.63;;;2.58;;
42590;SDS011;28218;53.342;-6.216;2023-04-08T12:48:44;13.70;;;2.67;;
42590;SDS011;28218;53.342;-6.216;2023-04-08T12:51:14;15.30;;;2.85;;
42590;SDS011;28218;53.342;-6.216;2023-04-08T12:53:42;19.70;;;3.10;;
42590;SDS011;28218;53.342;-6.216;2023-04-08T12:56:11;11.20;;;2.47;;
42590;SDS011;28218;53.342;-6.216;2023-04-08T12:58:40;5.20;;;2.47;;
42590;SDS011;28218;53.342;-6.216;2023-04-08T13:01:08;13.63;;;3.15;;
42590;SDS011;28218;53.342;-6.216;2023-04-08T13:03:38;13.20;;;2.80;;
42590;SDS011;28218;53.342;-6.216;2023-04-08T13:06:11;22.58;;;4.25;;
42590;SDS011;28218;53.342;-6.216;2023-04-08T13:08:39;16.67;;;2.85;;
42590;SDS011;28218;53.342;-6.216;2023-04-08T13:11:07;21.60;;;5.07;;
42590;SDS011;28218;53.342;-6.216;2023-04-08T13:13:37;19.10;;;3.20;;
42590;SDS011;28218;53.342;-6.216;2023-04-08T13:16:05;16.90;;;3.45;;
42590;SDS011;28218;53.342;-6.216;2023-04-08T13:18:34;16.40;;;3.83;;
42590;SDS011;28218;53.342;-6.216;2023-04-08T13:21:03;12.93;;;3.40;;
42590;SDS011;28218;53.342;-6.216;2023-04-08T13:23:31;9.15;;;3.30;;
42590;SDS011;28218;53.342;-6.216;2023-04-08T13:25:59;14.23;;;3.10;;
42590;SDS011;28218;53.342;-6.216;2023-04-08T13:28:28;15.43;;;3.00;;
42590;SDS011;28218;53.342;-6.216;2023-04-08T13:30:57;16.17;;;3.65;;
42590;SDS011;28218;53.342;-6.216;2023-04-08T13:33:26;17.77;;;3.65;;
42590;SDS011;28218;53.342;-6.216;2023-04-08T13:35:54;12.73;;;3.05;;
42590;SDS011;28218;53.342;-6.216;2023-04-08T13:38:22;13.30;;;3.15;;
42590;SDS011;28218;53.342;-6.216;2023-04-08T13:40:50;12.20;;;3.03;;
42590;SDS011;28218;53.342;-6.216;2023-04-08T13:43:19;11.95;;;3.63;;
42590;SDS011;28218;53.342;-6.216;2023-04-08T13:45:48;13.25;;;2.70;;
42590;SDS011;28218;53.342;-6.216;2023-04-08T13:48:17;8.90;;;3.00;;
42590;SDS011;28218;53.342;-6.216;2023-04-08T13:50:46;14.35;;;3.42;;
42590;SDS011;28218;53.342;-6.216;2023-04-08T13:53:15;11.07;;;4.13;;
42590;SDS011;28218;53.342;-6.216;2023-04-08T13:55:43;15.80;;;3.55;;
42590;SDS011;28218;53.342;-6.216;2023-04-08T13:58:12;16.50;;;3.10;;
42590;SDS011;28218;53.342;-6.216;2023-04-08T14:00:49;11.30;;;3.13;;
42590;SDS011;28218;53.342;-6.216;2023-04-08T14:03:19;14.38;;;2.83;;
42590;SDS011;28218;53.342;-6.216;2023-04-08T14:05:47;15.63;;;3.22;;
42590;SDS011;28218;53.342;-6.216;2023-04-08T14:08:16;18.55;;;3.65;;
42590;SDS011;28218;53.342;-6.216;2023-04-08T14:10:51;12.65;;;3.28;;
42590;SDS011;28218;53.342;-6.216;2023-04-08T14:13:19;14.20;;;3.08;;
42590;SDS011;28218;53.342;-6.216;2023-04-08T14:15:47;15.48;;;2.90;;
42590;SDS011;28218;53.342;-6.216;2023-04-08T14:18:15;14.35;;;3.65;;
42590;SDS011;28218;53.342;-6.216;2023-04-08T14:20:45;17.63;;;3.15;;
42590;SDS011;28218;53.342;-6.216;2023-04-08T14:23:13;17.63;;;2.70;;
42590;SDS011;28218;53.342;-6.216;2023-04-08T14:25:42;11.77;;;3.40;;
42590;SDS011;28218;53.342;-6.216;2023-04-08T14:28:10;12.60;;;2.80;;
42590;SDS011;28218;53.342;-6.216;2023-04-08T14:30:38;15.23;;;2.95;;
42590;SDS011;28218;53.342;-6.216;2023-04-08T14:33:07;20.35;;;3.40;;
42590;SDS011;28218;53.342;-6.216;2023-04-08T14:35:35;14.73;;;3.25;;
42590;SDS011;28218;53.342;-6.216;2023-04-08T14:38:05;12.10;;;3.72;;
42590;SDS011;28218;53.342;-6.216;2023-04-08T14:40:33;15.30;;;3.20;;
42590;SDS011;28218;53.342;-6.216;2023-04-08T14:43:03;15.90;;;3.53;;
42590;SDS011;28218;53.342;-6.216;2023-04-08T14:45:31;14.52;;;3.20;;
42590;SDS011;28218;53.342;-6.216;2023-04-08T14:47:59;18.95;;;3.25;;
42590;SDS011;28218;53.342;-6.216;2023-04-08T14:50:28;14.10;;;2.60;;